Time;durP1;ratioP1;P1;durP2;ratioP2;P2;SDS_P1;SDS_P2;PMS_P1;PMS_P2;Temp;Humidity;BMP_temperature;BMP_pressure;BME280_temperature;BME280_humidity;BME280_pressure;Samples;Min_cycle;Max_cycle;Signal;HPM_P1;HPM_P2
2023/10/10 00:02:18;;;;;;;8.85;4.20;;;17.80;52.80;;;19.67;41.87;98161.88;5033320;28;20033;-56
2023/10/10 00:04:47;;;;;;;12.57;5.95;;;17.80;53.20;;;19.64;41.95;98158.81;5033091;28;20042;-56
2023/10/10 00:07:16;;;;;;;10.43;4.10;;;17.70;53.30;;;19.60;41.79;98161.06;5033058;28;20041;-55
2023/10/10 00:09:45;;;;;;;9.05;4.68;;;17.80;53.30;;;19.57;41.99;98158.78;5032061;28;20489;-56
2023/10/10 00:12:35;;;;;;;10.95;3.95;;;17.70;53.20;;;19.56;41.85;98153.56;5025318;28;20049;-56
2023/10/10 00:15:06;;;;;;;10.30;4.15;;;17.80;53.20;;;19.52;41.96;98158.56;5032215;28;20045;-55
2023/10/10 00:17:34;;;;;;;8.63;4.53;;;17.70;53.40;;;19.50;42.08;98166.03;5033149;28;20053;-56
2023/10/10 00:20:22;;;;;;;9.88;4.93;;;17.70;53.10;;;19.48;41.77;98163.56;5032122;28;20065;-56
2023/10/10 00:22:58;;;;;;;12.85;5.03;;;17.70;52.80;;;19.48;41.80;98158.16;5031668;28;20041;-56
2023/10/10 00:25:30;;;;;;;8.75;4.45;;;17.70;52.80;;;19.45;41.98;98150.47;5033079;28;20045;-55
2023/10/10 00:28:18;;;;;;;11.70;4.40;;;17.70;53.10;;;19.44;41.79;98156.91;5032705;28;20113;-55
2023/10/10 00:30:46;;;;;;;9.90;4.32;;;17.70;52.70;;;19.43;41.84;98149.00;5031550;28;20049;-56
2023/10/10 00:33:16;;;;;;;9.02;4.32;;;17.70;52.40;;;19.43;41.64;98151.72;5024788;28;20049;-55
2023/10/10 00:35:44;;;;;;;19.92;5.25;;;17.70;52.20;;;19.42;41.60;98142.75;5032681;28;20045;-56
2023/10/10 00:38:18;;;;;;;7.28;3.33;;;17.70;52.10;;;19.39;41.77;98140.47;5031017;28;20052;-57
2023/10/10 00:40:47;;;;;;;10.07;4.03;;;17.60;51.80;;;19.39;41.25;98139.66;5031404;28;20053;-57
2023/10/10 00:43:16;;;;;;;11.57;5.78;;;17.60;51.20;;;19.39;40.63;98137.78;5024206;28;20107;-57
2023/10/10 00:45:52;;;;;;;12.38;4.65;;;17.60;49.80;;;19.40;40.47;98136.72;5031128;28;20168;-56
2023/10/10 00:48:24;;;;;;;10.38;4.70;;;17.70;49.50;;;19.44;39.89;98135.31;5008721;28;20037;-58
2023/10/10 00:51:05;;;;;;;9.65;4.30;;;17.80;48.60;;;19.47;39.58;98131.34;5031172;28;20050;-57
2023/10/10 00:53:34;;;;;;;10.38;5.38;;;17.90;48.30;;;19.50;39.56;98132.81;5031648;28;20053;-58
2023/10/10 00:56:06;;;;;;;6.88;4.93;;;17.90;47.70;;;19.50;39.33;98125.53;5031128;28;20060;-57
2023/10/10 00:58:36;;;;;;;11.43;4.43;;;17.90;47.80;;;19.50;38.60;98128.22;5031242;28;20501;-58
2023/10/10 01:01:10;;;;;;;12.57;4.97;;;17.90;46.60;;;19.52;38.65;98131.56;5031300;28;20508;-58
2023/10/10 01:03:42;;;;;;;9.07;4.57;;;17.90;45.60;;;19.55;38.30;98133.84;5031003;28;20056;-56
2023/10/10 01:06:20;;;;;;;8.90;4.25;;;17.90;45.90;;;19.56;38.77;98131.97;5031619;28;20052;-56
2023/10/10 01:09:20;;;;;;;10.85;4.95;;;17.90;46.80;;;19.53;38.68;98130.53;5029832;28;20053;-56
2023/10/10 01:11:51;;;;;;;9.00;4.35;;;17.90;46.60;;;19.52;38.31;98130.72;5031058;28;20045;-55
2023/10/10 01:14:18;;;;;;;9.20;4.40;;;17.80;45.90;;;19.48;38.62;98124.91;5014781;28;20064;-57
2023/10/10 01:16:47;;;;;;;10.30;4.05;;;17.80;46.70;;;19.42;38.83;98121.16;5032211;28;20049;-57
2023/10/10 01:19:18;;;;;;;9.93;4.60;;;17.70;47.20;;;19.37;38.51;98123.66;5030456;28;20077;-57
2023/10/10 01:21:50;;;;;;;10.23;4.90;;;17.60;47.10;;;19.32;38.45;98117.22;5031966;28;20440;-57
2023/10/10 01:24:43;;;;;;;8.40;4.60;;;17.50;47.10;;;19.30;38.53;98114.72;5026248;28;20223;-57
2023/10/10 01:27:17;;;;;;;13.05;5.47;;;17.50;46.60;;;19.28;38.47;98114.09;5029518;28;20148;-57
2023/10/10 01:29:50;;;;;;;13.63;5.43;;;17.50;46.70;;;19.23;38.33;98106.63;5031605;28;20125;-57
2023/10/10 01:32:19;;;;;;;10.05;4.38;;;17.50;47.00;;;19.16;39.07;98108.47;5030513;28;20041;-57
2023/10/10 01:34:46;;;;;;;12.32;5.95;;;17.30;48.30;;;19.10;39.02;98116.56;5030370;28;20056;-57
2023/10/10 01:37:14;;;;;;;9.88;5.40;;;17.20;48.40;;;19.03;39.33;98114.66;5031312;28;20061;-57
2023/10/10 01:40:17;;;;;;;8.30;4.68;;;17.20;48.70;;;18.95;39.65;98112.16;5030689;28;20045;-57
2023/10/10 01:42:53;;;;;;;8.75;4.18;;;17.10;49.80;;;18.91;39.58;98110.09;5027360;28;20065;-58
2023/10/10 01:45:23;;;;;;;10.07;5.07;;;17.00;49.40;;;18.83;39.55;98114.63;5022521;28;20045;-56
2023/10/10 01:47:57;;;;;;;13.32;6.18;;;16.80;49.60;;;18.74;39.78;98105.00;5030983;28;20052;-56
2023/10/10 01:50:26;;;;;;;13.40;4.75;;;16.80;49.90;;;18.68;39.94;98111.22;5024267;28;20049;-58
2023/10/10 01:52:56;;;;;;;9.70;4.68;;;16.70;50.30;;;18.62;40.15;98109.31;5031400;28;20060;-58
2023/10/10 01:55:25;;;;;;;11.65;4.88;;;16.70;50.80;;;18.56;40.49;98105.56;5029885;28;20045;-56
2023/10/10 01:58:01;;;;;;;8.82;4.65;;;16.60;51.10;;;18.50;40.69;98107.19;5030950;28;20045;-55
2023/10/10 02:00:34;;;;;;;9.68;5.95;;;16.60;51.30;;;18.45;40.65;98101.56;5023372;28;20052;-58
2023/10/10 02:03:03;;;;;;;10.98;4.43;;;16.50;51.60;;;18.39;40.90;98105.06;5031283;28;20029;-57
2023/10/10 02:08:16;;;;;;;10.60;4.80;;;16.30;52.70;;;18.27;41.26;98106.69;5030845;28;20034;-58
2023/10/10 02:10:47;;;;;;;8.57;4.20;;;16.20;53.10;;;18.20;41.48;98103.94;5029502;28;20041;-57
2023/10/10 02:13:16;;;;;;;14.13;4.40;;;16.20;53.60;;;18.17;41.59;98108.91;5029686;28;20051;-58
2023/10/10 02:15:44;;;;;;;9.15;4.93;;;16.10;53.50;;;18.14;41.81;98107.41;5029225;28;20061;-57
2023/10/10 02:18:23;;;;;;;12.45;5.15;;;16.20;53.60;;;18.12;41.85;98100.56;5029697;28;20053;-58
2023/10/10 02:20:52;;;;;;;9.30;5.03;;;16.20;53.60;;;18.07;41.86;98109.25;5028795;28;20045;-57
2023/10/10 02:25:53;;;;;;;9.18;4.60;;;16.00;54.30;;;17.95;42.37;98094.66;5029621;28;20045;-58
2023/10/10 02:28:27;;;;;;;10.95;5.22;;;15.90;54.60;;;17.90;42.24;98095.25;5028480;28;20038;-57
2023/10/10 02:30:55;;;;;;;10.82;4.57;;;15.80;54.30;;;17.83;42.39;98092.47;5029604;28;20420;-58
2023/10/10 02:33:31;;;;;;;10.57;5.05;;;15.80;54.70;;;17.79;42.40;98093.06;5030848;28;20419;-58
2023/10/10 02:35:59;;;;;;;11.93;4.57;;;15.70;54.70;;;17.76;42.39;98091.63;5029087;28;20038;-58
2023/10/10 02:38:34;;;;;;;9.85;4.20;;;15.70;54.70;;;17.73;42.22;98093.88;5029315;28;20046;-57
2023/10/10 02:41:24;;;;;;;8.57;4.35;;;15.80;54.40;;;17.72;42.35;98095.75;5030762;28;20424;-57
2023/10/10 02:44:05;;;;;;;10.95;5.40;;;15.70;54.30;;;17.69;42.85;98096.94;5015755;28;20054;-57
2023/10/10 02:46:38;;;;;;;11.02;5.78;;;15.70;55.50;;;17.67;42.84;98103.56;5023386;28;20052;-56
2023/10/10 02:49:13;;;;;;;8.85;4.30;;;15.70;55.20;;;17.61;42.78;98102.47;5029308;28;20038;-58
2023/10/10 02:51:43;;;;;;;7.53;4.47;;;15.60;55.10;;;17.58;42.86;98093.94;5030611;28;20389;-56
2023/10/10 02:54:28;;;;;;;10.93;4.30;;;15.60;55.10;;;17.56;43.14;98093.31;5029399;28;20060;-57
2023/10/10 02:57:06;;;;;;;9.05;4.70;;;15.60;55.80;;;17.51;43.28;98100.13;5022829;28;20424;-56
2023/10/10 02:59:38;;;;;;;14.00;4.30;;;15.50;56.10;;;17.47;43.29;98096.16;5022220;28;20526;-56
2023/10/10 03:02:18;;;;;;;7.40;5.28;;;15.50;56.00;;;17.43;43.27;98091.38;5029167;28;20060;-55
2023/10/10 03:07:31;;;;;;;10.30;5.45;;;15.40;56.80;;;17.39;43.35;98095.44;5028837;28;20060;-56
2023/10/10 03:10:22;;;;;;;10.32;4.60;;;15.40;56.00;;;17.36;43.44;98093.97;5029204;28;20045;-57
2023/10/10 03:12:53;;;;;;;10.68;4.78;;;15.40;56.20;;;17.34;43.33;98092.53;5040615;28;20394;-55
2023/10/10 03:20:25;;;;;;;10.68;4.75;;;15.40;56.20;;;17.27;43.59;98104.06;5029213;28;20053;-57
2023/10/10 03:25:47;;;;;;;14.27;5.85;;;15.20;56.80;;;17.20;43.78;98102.34;5021244;28;20046;-57
2023/10/10 03:28:29;;;;;;;10.77;4.45;;;15.20;57.20;;;17.17;43.83;98102.69;5029245;28;20046;-57
2023/10/10 03:31:22;;;;;;;9.38;5.30;;;15.10;57.20;;;17.09;44.10;98104.50;5029152;28;20045;-57
2023/10/10 03:34:18;;;;;;;7.90;4.38;;;15.10;57.70;;;17.06;44.03;98104.03;5027685;28;20049;-55
2023/10/10 03:37:04;;;;;;;10.88;5.22;;;15.00;57.30;;;17.02;43.99;98105.44;5020142;28;20056;-57
2023/10/10 03:39:43;;;;;;;10.43;5.63;;;15.00;57.20;;;16.97;44.06;98106.03;5026172;28;20112;-57
2023/10/10 05:25:24;;;;;;;9.70;5.28;;;14.40;59.80;;;16.33;45.99;98110.19;5032363;28;20511;-43
2023/10/10 05:27:58;;;;;;;11.82;5.25;;;14.40;59.70;;;16.34;45.97;98103.81;5030613;28;20045;-46
2023/10/10 05:30:27;;;;;;;;;;;14.40;59.50;;;16.29;45.85;98110.78;5031302;28;20064;-44
2023/10/10 05:33:01;;;;;;;13.38;6.38;;;14.40;60.70;;;16.34;45.76;98105.66;5030933;28;19924;-45
2023/10/10 05:35:30;;;;;;;10.73;5.10;;;14.40;59.80;;;16.31;46.02;98103.34;5031908;28;20394;-43
2023/10/10 05:38:00;;;;;;;11.85;5.63;;;14.40;59.70;;;16.28;45.83;98101.03;5031642;28;20045;-42
2023/10/10 05:40:32;;;;;;;10.85;4.38;;;14.30;59.50;;;16.25;45.81;98102.25;5030565;28;20042;-43
2023/10/10 05:43:02;;;;;;;12.88;5.30;;;14.40;59.20;;;16.25;45.55;98104.94;5031277;28;20038;-44
2023/10/10 05:45:30;;;;;;;12.32;5.00;;;14.40;58.60;;;16.26;45.17;98109.28;5031123;28;20520;-44
2023/10/10 05:47:59;;;;;;;10.90;5.38;;;14.40;58.00;;;16.26;45.23;98109.28;5030788;28;20400;-43
2023/10/10 05:50:27;;;;;;;11.88;5.53;;;14.40;57.80;;;16.28;45.23;98109.91;5031523;28;20045;-43
2023/10/10 05:52:55;;;;;;;10.65;5.05;;;14.50;57.80;;;16.25;45.07;98109.47;5031614;28;20045;-45
2023/10/10 05:55:23;;;;;;;12.15;5.47;;;14.40;57.70;;;16.27;45.14;98110.94;5029839;28;20520;-42
2023/10/10 05:57:51;;;;;;;9.82;4.53;;;14.50;57.50;;;16.29;44.70;98116.16;5031361;28;20045;-42
2023/10/10 06:00:21;;;;;;;11.27;5.85;;;14.50;57.20;;;16.30;44.80;98118.66;5030166;28;20053;-41
2023/10/10 06:02:49;;;;;;;12.52;5.63;;;14.50;57.10;;;16.34;44.74;98116.41;5031512;28;20049;-43
2023/10/10 06:05:18;;;;;;;11.93;5.43;;;14.60;56.70;;;16.38;44.65;98123.09;5031545;28;20091;-45
2023/10/10 06:07:48;;;;;;;10.52;5.13;;;14.60;56.60;;;16.38;45.06;98125.78;5031218;28;20041;-44
2023/10/10 06:10:16;;;;;;;10.70;5.03;;;14.60;57.10;;;16.39;44.73;98115.88;5031337;28;20053;-41
2023/10/10 06:12:47;;;;;;;13.52;5.20;;;14.60;56.70;;;16.41;45.01;98124.56;5030889;28;20409;-43
2023/10/10 06:15:17;;;;;;;14.60;4.80;;;14.70;57.10;;;16.42;45.03;98121.69;5031284;28;20445;-44
2023/10/10 06:17:48;;;;;;;12.75;5.20;;;14.70;57.20;;;16.47;45.11;98129.19;5030831;28;20049;-46
2023/10/10 06:20:40;;;;;;;13.85;5.13;;;14.80;56.60;;;16.51;44.69;98133.16;5031318;28;20049;-43
2023/10/10 06:23:25;;;;;;;10.00;4.60;;;14.90;56.10;;;16.58;44.64;98128.72;5028329;28;20555;-44
2023/10/10 06:25:59;;;;;;;10.75;5.43;;;14.90;55.60;;;16.64;44.44;98127.13;5029863;28;20037;-48
2023/10/10 06:28:28;;;;;;;;;;;15.00;55.00;;;16.71;44.42;98126.19;5029078;28;20516;-43
2023/10/10 06:30:59;;;;;;;9.35;4.80;;;15.20;54.50;;;16.80;44.27;98126.06;5030942;28;19948;-42
2023/10/10 06:33:28;;;;;;;11.35;4.80;;;15.20;54.90;;;16.84;44.17;98122.84;5029742;28;20057;-42
2023/10/10 06:41:37;;;;;;;11.95;5.78;;;15.40;55.30;;;16.99;44.25;98128.19;5030832;28;20037;-43
2023/10/10 06:44:13;;;;;;;14.20;7.38;;;15.40;55.70;;;17.02;44.29;98127.81;5029672;28;20072;-43
2023/10/10 06:46:49;;;;;;;8.27;4.57;;;15.50;55.40;;;17.09;44.35;98136.75;5013860;28;20508;-41
2023/10/10 06:49:20;;;;;;;9.40;4.47;;;15.50;54.80;;;17.15;44.13;98135.19;5030694;28;20060;-42
2023/10/10 06:51:49;;;;;;;14.13;5.25;;;15.60;54.40;;;17.20;43.95;98132.75;5030504;28;20440;-42
2023/10/10 06:54:27;;;;;;;10.77;5.45;;;15.70;53.90;;;17.24;43.63;98136.72;5030836;28;20416;-41
2023/10/10 06:59:29;;;;;;;11.25;6.20;;;15.90;53.20;;;17.40;43.39;98134.81;5029438;28;20080;-42
2023/10/10 07:02:13;;;;;;;17.02;7.07;;;16.00;52.90;;;17.46;43.31;98134.03;5030459;28;20041;-44
2023/10/10 07:04:41;;;;;;;17.15;5.93;;;16.10;52.90;;;17.53;43.41;98134.94;5029296;28;20056;-43
2023/10/10 07:07:11;;;;;;;12.70;7.60;;;16.20;52.90;;;17.60;43.34;98140.34;5032301;28;20033;-42
2023/10/10 07:09:42;;;;;;;15.43;7.18;;;16.20;52.90;;;17.64;43.51;98133.56;5034291;28;20416;-42
2023/10/10 07:12:10;;;;;;;14.13;5.50;;;16.30;53.10;;;17.65;43.34;98136.06;5034619;28;20038;-44
2023/10/10 07:14:43;;;;;;;14.45;6.15;;;16.30;52.70;;;17.69;43.03;98142.72;5034525;28;20049;-41
2023/10/10 07:17:13;;;;;;;11.40;5.60;;;16.40;52.50;;;17.78;43.16;98146.13;5032646;28;20045;-43
2023/10/10 07:22:34;;;;;;;11.40;5.05;;;16.50;52.80;;;17.92;43.79;98151.63;5034268;28;20428;-45
2023/10/10 07:25:10;;;;;;;;;;;16.50;53.70;;;17.97;43.84;98151.84;5034827;28;20041;-44
2023/10/10 07:27:39;;;;;;;13.00;5.63;;;16.60;56.10;;;18.03;44.24;98153.75;5032889;28;20438;-44
2023/10/10 07:30:18;;;;;;;13.05;4.72;;;16.60;55.30;;;18.07;44.45;98152.38;5033821;28;20471;-49
2023/10/10 07:32:50;;;;;;;16.13;5.43;;;16.60;55.60;;;18.08;44.38;98149.44;5032525;28;20061;-44
2023/10/10 07:35:25;;;;;;;11.18;5.90;;;16.60;55.70;;;18.13;44.24;98148.06;5033724;28;20045;-45
2023/10/10 07:37:58;;;;;;;13.57;5.80;;;16.60;55.30;;;18.15;44.33;98146.00;5033695;28;20050;-47
2023/10/10 07:40:30;;;;;;;15.73;5.35;;;16.70;55.20;;;18.20;44.16;98148.91;5034116;28;20056;-42
2023/10/10 07:42:59;;;;;;;10.18;5.75;;;16.80;54.80;;;18.22;44.14;98153.09;5024801;28;20061;-43
2023/10/10 07:45:33;;;;;;;13.77;5.38;;;16.80;54.60;;;18.26;44.08;98162.44;5031754;28;20045;-44
2023/10/10 07:50:35;;;;;;;12.18;5.57;;;16.90;54.60;;;18.33;44.07;98153.56;5033952;28;20049;-46
2023/10/10 07:53:07;;;;;;;9.23;5.20;;;17.00;54.40;;;18.38;44.06;98156.47;5025475;28;20428;-44
2023/10/10 07:55:51;;;;;;;15.23;5.82;;;17.10;54.30;;;18.42;44.16;98157.78;5033643;28;20046;-44
2023/10/10 07:58:23;;;;;;;8.93;4.63;;;17.10;54.20;;;18.47;44.06;98168.75;5033648;28;20417;-42
2023/10/10 08:01:10;;;;;;;14.07;6.10;;;17.20;54.20;;;18.49;44.05;98169.41;5027243;28;20068;-46
2023/10/10 08:03:47;;;;;;;13.15;5.03;;;17.20;54.10;;;18.52;43.92;98169.00;5033399;28;20041;-46
2023/10/10 08:06:18;;;;;;;12.95;6.32;;;17.20;53.90;;;18.56;43.94;98162.19;5031770;28;20045;-43
2023/10/10 08:09:08;;;;;;;17.45;5.97;;;17.30;53.80;;;18.61;43.84;98167.81;5033280;28;20037;-43
2023/10/10 08:11:37;;;;;;;11.57;4.85;;;17.30;53.70;;;18.66;44.00;98169.91;5033127;28;20041;-45
2023/10/10 08:14:08;;;;;;;8.55;4.57;;;17.30;53.90;;;18.70;44.12;98173.88;5026009;28;20045;-43
2023/10/10 08:16:39;;;;;;;15.20;6.22;;;17.40;54.10;;;18.76;44.73;98177.63;5032181;28;20330;-44
2023/10/10 08:19:08;;;;;;;11.05;4.93;;;17.50;55.40;;;18.79;44.82;98171.84;5032940;28;20049;-42
2023/10/10 08:21:39;;;;;;;11.32;5.32;;;17.50;55.40;;;18.82;44.81;98172.28;5033180;28;20242;-47
2023/10/10 08:24:11;;;;;;;10.90;4.90;;;17.50;55.30;;;18.85;45.29;98177.28;5032861;28;20050;-46
2023/10/10 08:26:39;;;;;;;16.13;5.07;;;17.60;55.90;;;18.91;45.28;98172.94;5031719;28;20054;-44
2023/10/10 08:29:09;;;;;;;10.07;5.15;;;17.60;56.20;;;18.95;45.73;98173.38;5031478;28;20045;-42
2023/10/10 08:31:39;;;;;;;12.45;5.57;;;17.70;57.00;;;18.98;46.08;98173.81;5032896;28;20051;-44
2023/10/10 08:34:09;;;;;;;11.60;4.95;;;17.80;57.40;;;19.02;46.04;98168.84;5014296;28;20524;-42
2023/10/10 08:36:43;;;;;;;12.57;5.40;;;17.80;57.50;;;19.06;46.40;98172.81;5032413;28;20053;-43
2023/10/10 08:39:17;;;;;;;12.57;5.75;;;17.80;58.00;;;19.11;46.61;98175.69;5032237;28;20053;-45
2023/10/10 08:41:45;;;;;;;14.80;5.88;;;17.80;58.30;;;19.14;46.48;98169.91;5032887;28;20492;-44
2023/10/10 08:44:15;;;;;;;22.45;6.82;;;17.90;58.20;;;19.19;46.37;98170.16;5032977;28;20536;-44
2023/10/10 08:46:48;;;;;;;12.75;5.57;;;17.90;58.20;;;19.22;46.59;98167.03;5031594;28;20173;-45
2023/10/10 08:49:16;;;;;;;13.05;5.68;;;18.00;58.20;;;19.25;46.69;98168.47;5031453;28;20547;-42
2023/10/10 08:51:45;;;;;;;9.98;5.07;;;18.00;58.50;;;19.30;46.77;98165.19;5032551;28;20042;-44
2023/10/10 08:54:15;;;;;;;13.63;6.10;;;18.10;58.40;;;19.34;46.69;98158.34;5032550;28;20045;-43
2023/10/10 08:57:02;;;;;;;13.43;6.85;;;18.10;58.20;;;19.37;46.71;98158.75;5032692;28;20049;-42
2023/10/10 08:59:31;;;;;;;13.30;5.57;;;18.10;58.00;;;19.43;46.50;98146.31;5032711;28;20053;-44
2023/10/10 09:02:16;;;;;;;13.88;5.00;;;18.20;57.70;;;19.50;46.19;98157.94;5031213;28;20422;-44
2023/10/10 09:04:45;;;;;;;11.75;4.40;;;18.30;57.00;;;19.56;43.95;98156.28;5032472;28;20444;-43
2023/10/10 09:07:27;;;;;;;10.40;4.00;;;18.40;53.30;;;19.62;43.08;98156.28;5031951;28;20396;-45
2023/10/10 09:10:13;;;;;;;12.50;5.38;;;18.50;52.20;;;19.70;42.89;98157.09;5032493;28;20072;-43
2023/10/10 09:12:58;;;;;;;12.20;6.07;;;18.50;51.60;;;19.78;42.76;98154.25;5032363;28;20046;-44
2023/10/10 09:15:27;;;;;;;11.63;5.45;;;18.60;51.10;;;19.85;42.68;98160.47;5032205;28;20394;-42
2023/10/10 09:18:17;;;;;;;13.10;5.38;;;18.70;50.90;;;19.90;42.43;98157.97;5032236;28;20042;-43
2023/10/10 09:20:48;;;;;;;10.30;4.63;;;18.80;48.30;;;20.02;42.25;98160.88;5032152;28;20037;-47
2023/10/10 09:23:25;;;;;;;10.32;5.32;;;18.90;50.20;;;20.10;42.02;98162.53;5032206;28;20152;-46
2023/10/10 09:26:29;;;;;;;11.48;5.63;;;19.00;49.10;;;20.18;41.40;98162.31;5031727;28;20054;-41
2023/10/10 09:29:00;;;;;;;10.77;6.00;;;19.10;49.40;;;20.27;41.29;98164.59;5030419;28;20400;-45
2023/10/10 09:31:31;;;;;;;11.60;5.40;;;19.20;49.10;;;20.33;41.34;98164.78;5023382;28;20068;-45
2023/10/10 09:34:03;;;;;;;10.32;5.45;;;19.20;49.50;;;20.41;41.40;98164.56;5032345;28;20049;-43
2023/10/10 09:36:37;;;;;;;11.45;4.53;;;19.30;49.50;;;20.47;41.92;98166.41;5031972;28;20053;-43
2023/10/10 09:39:09;;;;;;;12.73;5.10;;;19.40;50.30;;;20.55;42.08;98159.94;5023538;28;20160;-44
2023/10/10 09:42:00;;;;;;;11.68;5.15;;;19.50;50.40;;;20.59;41.82;98162.06;5031937;28;20049;-44
2023/10/10 09:49:46;;;;;;;10.10;4.55;;;19.60;49.30;;;20.76;41.32;98161.56;5019738;28;20069;-43
2023/10/10 09:58:00;;;;;;;14.05;5.43;;;19.80;47.20;;;20.87;40.61;98160.91;5022088;28;20050;-43
2023/10/10 10:03:31;;;;;;;11.48;6.32;;;19.80;47.20;;;20.97;39.69;98163.16;5022197;28;20033;-45
2023/10/10 10:06:35;;;;;;;8.98;4.22;;;19.90;47.20;;;20.99;39.90;98161.88;5031276;28;20060;-43
2023/10/10 10:09:21;;;;;;;10.38;4.80;;;19.90;46.00;;;21.07;39.36;98160.81;5031118;28;20045;-47
2023/10/10 10:12:33;;;;;;;10.63;4.75;;;20.00;45.40;;;21.11;39.71;98163.91;5030116;28;20405;-47
2023/10/10 10:15:50;;;;;;;10.65;6.07;;;20.00;45.00;;;21.14;39.37;98169.72;5031192;28;20053;-45
2023/10/10 10:18:27;;;;;;;9.43;5.50;;;20.10;44.10;;;21.23;38.40;98168.44;5013278;28;20041;-45
2023/10/10 10:23:45;;;;;;;14.27;6.05;;;20.10;44.20;;;21.32;38.37;98173.59;5031360;28;20515;-44
2023/10/10 10:26:41;;;;;;;11.18;5.53;;;20.20;44.90;;;21.36;38.13;98172.94;5023295;28;20042;-42
2023/10/10 10:29:27;;;;;;;10.07;5.25;;;20.30;44.50;;;21.42;38.05;98174.78;5022661;28;20045;-47
2023/10/10 10:32:00;;;;;;;10.13;5.43;;;20.30;43.30;;;21.46;37.53;98171.66;5029961;28;20041;-45
2023/10/10 10:34:31;;;;;;;10.48;5.82;;;20.30;42.60;;;21.49;37.15;98169.34;5030008;28;20049;-46
2023/10/10 10:37:19;;;;;;;10.68;5.82;;;20.40;43.10;;;21.53;37.34;98167.03;5030622;28;20057;-43
2023/10/10 10:40:23;;;;;;;10.75;5.78;;;20.50;42.50;;;21.60;37.02;98165.94;5030943;28;20045;-47
2023/10/10 10:42:51;;;;;;;13.35;5.53;;;20.50;43.10;;;21.68;36.88;98175.69;5030448;28;20417;-41
2023/10/10 10:45:41;;;;;;;9.52;5.35;;;20.60;43.50;;;21.74;37.10;98182.09;5031026;28;20496;-46
2023/10/10 10:48:29;;;;;;;11.57;4.85;;;20.70;41.40;;;21.79;36.80;98176.84;5029389;28;20052;-41
2023/10/10 10:51:22;;;;;;;11.45;5.97;;;20.70;42.20;;;21.83;36.76;98169.94;5030808;28;20053;-42
2023/10/10 10:53:58;;;;;;;10.57;4.70;;;20.70;42.40;;;21.90;36.76;98176.13;5029848;28;20041;-46
2023/10/10 10:59:12;;;;;;;12.15;5.78;;;20.90;41.70;;;22.00;36.49;98160.22;5030380;28;20287;-44
2023/10/10 11:01:52;;;;;;;10.48;5.47;;;21.00;40.50;;;22.09;36.20;98162.63;5029581;28;20046;-43
2023/10/10 11:07:05;;;;;;;11.80;5.28;;;21.10;41.50;;;22.22;35.88;98160.63;5030036;28;20488;-45
2023/10/10 11:09:36;;;;;;;8.15;5.13;;;21.20;41.40;;;22.27;35.85;98151.00;5030547;28;20068;-42
2023/10/10 11:12:06;;;;;;;9.48;5.38;;;21.30;41.50;;;22.33;35.58;98152.81;5029176;28;20046;-41
2023/10/10 11:14:46;;;;;;;8.88;5.00;;;21.30;41.00;;;22.39;35.56;98154.63;5030404;28;20048;-46
2023/10/10 11:17:19;;;;;;;15.23;5.32;;;21.40;40.60;;;22.45;34.84;98151.03;5021914;28;20421;-43
2023/10/10 11:19:54;;;;;;;11.80;4.97;;;21.50;39.80;;;22.52;34.76;98151.78;5030604;28;20485;-44
2023/10/10 11:22:38;;;;;;;11.35;6.38;;;21.60;39.80;;;22.58;34.87;98141.91;5029530;28;20050;-46
2023/10/10 11:25:11;;;;;;;12.13;5.57;;;21.60;39.60;;;22.63;34.59;98133.94;5030150;28;20038;-44
2023/10/10 11:27:46;;;;;;;11.98;5.95;;;21.60;39.40;;;22.68;34.70;98127.81;5029019;28;20208;-44
2023/10/10 11:30:24;;;;;;;9.77;4.68;;;21.70;39.30;;;22.72;34.49;98118.16;5030164;28;20050;-44
2023/10/10 11:33:16;;;;;;;11.40;5.15;;;21.70;39.20;;;22.76;34.16;98120.19;5030196;28;20053;-46
2023/10/10 11:35:41;;;;;;;8.45;5.68;;;21.80;38.70;;;22.80;33.95;98115.97;5030162;28;20056;-45
2023/10/10 11:38:09;;;;;;;10.60;5.97;;;21.80;38.80;;;22.85;34.20;98112.56;5028561;28;20076;-45
2023/10/10 11:40:37;;;;;;;10.48;5.18;;;21.90;39.00;;;22.91;34.28;98108.91;5030373;28;20363;-46
2023/10/10 11:43:13;;;;;;;10.25;6.18;;;21.90;39.30;;;22.99;33.77;98105.91;5029702;28;20045;-46
2023/10/10 11:45:40;;;;;;;8.05;5.28;;;21.90;38.90;;;23.06;33.98;98107.72;5024774;28;20045;-45
2023/10/10 11:48:13;;;;;;;12.48;6.00;;;22.00;38.70;;;23.12;33.80;98110.34;5023355;28;20046;-42
2023/10/10 11:50:50;;;;;;;11.32;5.57;;;22.10;38.50;;;23.17;33.83;98102.34;5027345;28;20045;-44
2023/10/10 11:53:24;;;;;;;13.23;6.10;;;22.10;38.40;;;23.22;33.67;98098.09;5031171;28;20516;-43
2023/10/10 11:55:54;;;;;;;10.27;5.38;;;22.20;38.40;;;23.27;33.49;98090.09;5032974;28;20589;-42
2023/10/10 11:58:35;;;;;;;9.52;6.03;;;22.30;38.30;;;23.32;33.26;98099.19;5033670;28;20412;-45
2023/10/10 12:01:09;;;;;;;13.32;5.60;;;22.40;38.00;;;23.38;33.45;98100.16;5033418;28;20059;-45
2023/10/10 12:06:26;;;;;;;10.02;4.95;;;22.50;35.70;;;23.50;33.16;98094.75;5032004;28;19921;-42
2023/10/10 12:08:54;;;;;;;12.00;6.00;;;22.50;37.70;;;23.53;33.27;98091.53;5032170;28;20490;-44
2023/10/10 12:11:22;;;;;;;10.05;5.00;;;22.60;37.90;;;23.56;33.62;98089.19;5033354;28;20042;-45
2023/10/10 12:13:52;;;;;;;10.40;5.30;;;22.70;38.20;;;23.61;33.34;98090.38;5030771;28;20052;-44
2023/10/10 12:16:23;;;;;;;14.55;5.43;;;22.70;37.80;;;23.62;33.17;98079.28;5033494;28;20041;-44
2023/10/10 12:18:52;;;;;;;11.43;5.15;;;22.70;37.80;;;23.67;33.43;98084.84;5033040;28;20042;-46
2023/10/10 12:21:22;;;;;;;10.73;5.60;;;22.70;38.10;;;23.72;33.79;98079.50;5025207;28;20386;-45
2023/10/10 12:23:55;;;;;;;13.35;5.95;;;22.80;38.40;;;23.81;33.62;98076.47;5033156;28;20042;-45
2023/10/10 12:26:29;;;;;;;13.48;5.50;;;22.80;38.60;;;23.87;33.48;98078.25;5025777;28;20042;-42
2023/10/10 12:28:58;;;;;;;9.80;5.50;;;22.90;38.30;;;23.92;33.35;98078.34;5032508;28;20037;-44
2023/10/10 12:31:26;;;;;;;10.75;6.10;;;23.00;38.00;;;23.95;33.43;98073.28;5031965;28;20421;-57
2023/10/10 12:33:53;;;;;;;12.13;6.40;;;23.00;38.10;;;24.00;33.25;98069.88;5031755;28;20048;-57
2023/10/10 12:36:28;;;;;;;14.93;6.15;;;23.00;38.60;;;24.06;33.29;98068.91;5032633;28;20527;-58
2023/10/10 12:38:57;;;;;;;13.00;6.20;;;23.10;38.30;;;24.10;33.21;98059.22;5032884;28;20041;-57
2023/10/10 12:41:27;;;;;;;11.20;6.38;;;23.20;38.00;;;24.13;33.45;98064.16;5024484;28;20417;-56
2023/10/10 12:43:55;;;;;;;10.50;5.68;;;23.20;38.40;;;24.16;33.46;98054.72;5031552;28;20045;-56
2023/10/10 12:46:23;;;;;;;12.38;5.97;;;23.20;38.60;;;24.22;33.66;98061.09;5031748;28;20493;-57
2023/10/10 12:48:51;;;;;;;12.73;6.10;;;23.20;38.80;;;24.27;33.65;98059.31;5032899;28;20037;-57
2023/10/10 12:51:23;;;;;;;14.48;7.50;;;23.30;38.90;;;24.31;33.58;98055.03;5032557;28;20064;-57
2023/10/10 12:54:00;;;;;;;15.48;6.40;;;23.40;38.80;;;24.38;33.80;98058.44;5031753;28;20041;-57
2023/10/10 12:56:29;;;;;;;11.85;6.15;;;23.40;38.80;;;24.45;33.23;98054.78;5023720;28;20045;-57
2023/10/10 12:59:03;;;;;;;14.65;8.30;;;23.50;38.20;;;24.48;33.63;98044.22;5032106;28;20536;-57
2023/10/10 13:01:55;;;;;;;15.93;6.95;;;23.60;38.50;;;24.57;33.39;98050.16;5028115;28;20049;-57
2023/10/10 13:04:29;;;;;;;9.73;5.55;;;23.60;38.30;;;24.61;33.50;98048.59;5030233;28;20057;-57
2023/10/10 13:07:02;;;;;;;10.75;6.45;;;23.60;38.60;;;24.68;33.50;98043.84;5032237;28;20048;-58
2023/10/10 13:09:33;;;;;;;13.98;6.55;;;23.80;38.60;;;24.73;33.45;98048.53;5025238;28;20488;-57
2023/10/10 13:12:03;;;;;;;11.02;5.20;;;23.80;38.30;;;24.75;33.50;98041.78;5031586;28;20045;-57
2023/10/10 13:14:35;;;;;;;13.35;5.22;;;23.80;38.40;;;24.79;33.42;98047.56;5031371;28;20044;-57
2023/10/10 13:19:49;;;;;;;14.02;7.07;;;23.80;38.20;;;24.87;33.10;98041.75;5032574;28;20412;-57
2023/10/10 13:22:20;;;;;;;13.82;6.82;;;23.90;38.20;;;24.89;33.26;98042.34;5031886;28;20501;-57
2023/10/10 13:24:49;;;;;;;13.68;7.13;;;23.90;38.10;;;24.91;33.11;98045.63;5032447;28;20048;-44
2023/10/10 13:27:17;;;;;;;15.23;5.57;;;23.90;38.20;;;24.93;32.99;98040.78;5031565;28;20524;-43